createdAt,value
2019-05-05T00:02:26.669Z,3.43
2019-05-05T00:05:17.905Z,3.97
2019-05-05T00:07:49.342Z,2.93
2019-05-05T00:10:51.516Z,4.20
2019-05-05T00:13:39.389Z,3.17
2019-05-05T00:16:21.955Z,3.60
2019-05-05T00:18:54.297Z,4.70
2019-05-05T00:21:25.757Z,3.40
2019-05-05T00:23:57.037Z,4.07
2019-05-05T00:26:28.280Z,4.73
2019-05-05T00:28:59.538Z,4.57
2019-05-05T00:31:30.790Z,5.50
2019-05-05T00:34:02.021Z,4.43
2019-05-05T00:36:35.246Z,4.83
2019-05-05T00:39:09.583Z,3.77
2019-05-05T00:41:40.805Z,4.23
2019-05-05T00:44:12.090Z,4.43
2019-05-05T00:47:01.024Z,4.60
2019-05-05T00:49:44.099Z,3.90
2019-05-05T00:52:06.660Z,4.60
2019-05-05T00:54:37.811Z,3.83
2019-05-05T00:57:09.076Z,4.70
2019-05-05T00:59:40.262Z,4.90
2019-05-05T01:02:19.145Z,6.00
2019-05-05T01:05:04.524Z,5.90
2019-05-05T01:07:35.960Z,5.80
2019-05-05T01:10:08.273Z,5.83
2019-05-05T01:12:39.617Z,6.00
2019-05-05T01:15:11.429Z,5.73
2019-05-05T01:17:44.881Z,5.83
2019-05-05T01:20:16.556Z,5.63
2019-05-05T01:22:47.737Z,6.10
2019-05-05T01:25:19.178Z,5.70
2019-05-05T01:27:50.486Z,5.53
2019-05-05T01:30:28.969Z,6.23
2019-05-05T01:33:10.585Z,6.27
2019-05-05T01:35:41.812Z,6.60
2019-05-05T01:38:19.417Z,7.10
2019-05-05T01:41:12.312Z,7.00
2019-05-05T01:43:45.202Z,6.60
2019-05-05T01:46:16.601Z,8.13
2019-05-05T01:48:47.835Z,6.57
2019-05-05T01:51:18.981Z,7.47
2019-05-05T01:53:50.212Z,6.80
2019-05-05T01:56:21.632Z,6.90
2019-05-05T01:58:54.766Z,7.40
2019-05-05T02:01:26.149Z,6.57
2019-05-05T02:03:57.400Z,5.63
2019-05-05T02:06:28.669Z,6.57
2019-05-05T02:08:59.940Z,6.10
2019-05-05T02:11:31.149Z,5.10
2019-05-05T02:14:02.496Z,5.23
2019-05-05T02:16:34.696Z,4.80
2019-05-05T02:19:06.212Z,4.50
2019-05-05T02:21:37.529Z,5.00
2019-05-05T02:24:08.981Z,4.83
2019-05-05T02:26:40.210Z,5.87
2019-05-05T02:29:36.409Z,5.63
2019-05-05T02:32:35.905Z,5.20
2019-05-05T02:35:08.639Z,5.50
2019-05-05T02:37:39.896Z,4.73
2019-05-05T02:40:15.663Z,5.60
2019-05-05T02:42:48.546Z,6.33
2019-05-05T02:46:08.874Z,5.30
2019-05-05T02:48:40.947Z,7.97
2019-05-05T02:51:15.077Z,6.00
2019-05-05T02:53:53.641Z,5.37
2019-05-05T02:56:34.186Z,5.90
2019-05-05T02:59:11.132Z,5.00
2019-05-05T03:01:59.510Z,5.30
2019-05-05T03:04:31.287Z,6.37
2019-05-05T03:07:06.785Z,4.83
2019-05-05T03:09:39.357Z,4.40
2019-05-05T03:12:12.319Z,6.27
2019-05-05T03:14:47.016Z,5.57
2019-05-05T03:17:19.859Z,5.87
2019-05-05T03:19:53.544Z,6.23
2019-05-05T03:22:26.972Z,6.63
2019-05-05T03:24:58.819Z,6.40
2019-05-05T03:27:30.566Z,5.90
2019-05-05T03:30:05.113Z,5.47
2019-05-05T03:32:36.565Z,6.13
2019-05-05T03:35:08.017Z,6.10
2019-05-05T03:37:39.437Z,5.97
2019-05-05T03:40:18.451Z,6.60
2019-05-05T03:43:11.929Z,7.03
2019-05-05T03:45:53.961Z,6.80
2019-05-05T03:48:25.530Z,5.90
2019-05-05T03:50:57.220Z,6.80
2019-05-05T03:53:29.632Z,6.67
2019-05-05T03:56:01.302Z,6.60
2019-05-05T03:58:34.430Z,6.70
2019-05-05T04:01:40.171Z,6.50
2019-05-05T04:04:25.390Z,5.90
2019-05-05T04:06:57.383Z,6.27
2019-05-05T04:09:28.994Z,6.43
2019-05-05T04:12:00.269Z,6.57
2019-05-05T04:14:31.475Z,7.13
2019-05-05T04:17:36.740Z,6.00
2019-05-05T04:20:45.640Z,6.07
2019-05-05T04:23:16.905Z,6.63
2019-05-05T04:25:48.135Z,5.60
2019-05-05T04:28:19.402Z,7.50
2019-05-05T04:30:50.643Z,5.83
2019-05-05T04:33:23.655Z,6.33
2019-05-05T04:35:54.998Z,5.40
2019-05-05T04:38:26.170Z,5.70
2019-05-05T04:40:57.674Z,6.03
2019-05-05T04:43:28.932Z,5.57
2019-05-05T04:46:00.179Z,6.53
2019-05-05T04:48:38.552Z,5.53
2019-05-05T04:51:24.474Z,6.00
2019-05-05T04:54:16.635Z,4.93
2019-05-05T04:56:47.921Z,5.53
2019-05-05T04:59:19.176Z,5.30
2019-05-05T05:01:54.636Z,5.40
2019-05-05T05:04:50.329Z,4.60
2019-05-05T05:07:23.607Z,3.70
2019-05-05T05:09:54.621Z,4.60
2019-05-05T05:12:25.874Z,4.83
2019-05-05T05:14:57.117Z,5.00
2019-05-05T05:17:35.699Z,5.77
2019-05-05T05:20:07.722Z,4.37
2019-05-05T05:22:39.063Z,4.70
2019-05-05T05:25:10.544Z,4.37
2019-05-05T05:27:41.823Z,3.63
2019-05-05T05:30:13.736Z,3.90
2019-05-05T05:32:45.288Z,3.63
2019-05-05T05:35:16.685Z,4.27
2019-05-05T05:37:47.950Z,3.87
2019-05-05T05:40:24.987Z,4.80
2019-05-05T05:42:57.407Z,4.37
2019-05-05T05:45:45.136Z,4.00
2019-05-05T05:48:36.213Z,4.20
2019-05-05T05:51:10.007Z,4.00
2019-05-05T05:56:17.306Z,4.70
2019-05-05T05:58:48.487Z,4.63
2019-05-05T06:01:19.699Z,3.60
2019-05-05T06:03:50.894Z,4.50
2019-05-05T06:06:24.000Z,4.50
2019-05-05T06:08:54.970Z,4.30
2019-05-05T06:11:26.098Z,3.83
2019-05-05T06:13:59.543Z,4.53
2019-05-05T06:16:35.051Z,4.80
2019-05-05T06:22:15.176Z,4.20
2019-05-05T06:24:44.718Z,4.83
2019-05-05T06:27:15.992Z,4.07
2019-05-05T06:29:47.288Z,5.17
2019-05-05T06:32:18.504Z,4.63
2019-05-05T06:34:49.755Z,6.07
2019-05-05T06:37:21.061Z,5.00
2019-05-05T06:39:54.450Z,4.00
2019-05-05T06:42:50.538Z,4.43
2019-05-05T06:45:34.182Z,4.80
2019-05-05T06:48:04.971Z,4.97
2019-05-05T06:50:36.201Z,6.40
2019-05-05T06:53:07.395Z,4.90
2019-05-05T06:55:38.556Z,4.03
2019-05-05T06:58:09.799Z,5.20
2019-05-05T07:00:41.039Z,4.80
2019-05-05T07:03:13.916Z,6.47
2019-05-05T07:05:47.396Z,5.23
2019-05-05T07:08:18.784Z,4.77
2019-05-05T07:10:49.992Z,5.20
2019-05-05T07:13:21.141Z,3.60
2019-05-05T07:15:54.270Z,4.10
2019-05-05T07:18:25.412Z,4.47
2019-05-05T07:20:56.714Z,4.80
2019-05-05T07:23:27.945Z,4.60
2019-05-05T07:25:59.161Z,5.00
2019-05-05T07:28:30.399Z,4.70
2019-05-05T07:31:01.696Z,4.77
2019-05-05T07:33:34.640Z,4.00
2019-05-05T07:36:24.955Z,4.43
2019-05-05T07:38:56.472Z,4.63
2019-05-05T07:41:27.724Z,4.93
2019-05-05T07:43:59.022Z,5.73
2019-05-05T07:46:30.247Z,7.43
2019-05-05T07:49:03.721Z,4.73
2019-05-05T07:51:34.372Z,5.90
2019-05-05T07:54:05.692Z,5.40
2019-05-05T07:56:37.047Z,5.80
2019-05-05T07:59:08.298Z,6.03
2019-05-05T08:01:39.665Z,5.80
2019-05-05T08:04:10.863Z,6.73
2019-05-05T08:06:44.377Z,5.00
2019-05-05T08:09:15.065Z,5.20
2019-05-05T08:11:46.327Z,5.10
2019-05-05T08:14:17.621Z,4.80
2019-05-05T08:17:03.776Z,6.50
2019-05-05T08:19:43.874Z,4.97
2019-05-05T08:22:15.228Z,4.50
2019-05-05T08:25:05.206Z,4.97
2019-05-05T08:28:05.476Z,6.00
2019-05-05T08:30:45.109Z,5.13
2019-05-05T08:33:16.261Z,5.23
2019-05-05T08:35:47.420Z,5.30
2019-05-05T08:38:18.776Z,4.70
2019-05-05T08:40:50.191Z,5.13
2019-05-05T08:43:21.519Z,6.10
2019-05-05T08:45:55.411Z,6.53
2019-05-05T08:48:26.770Z,5.30
2019-05-05T08:50:58.027Z,4.23
2019-05-05T08:53:41.526Z,3.87
2019-05-05T08:56:04.048Z,5.00
2019-05-05T08:58:35.121Z,4.53
2019-05-05T09:01:06.335Z,4.07
2019-05-05T09:03:37.580Z,3.07
2019-05-05T09:06:08.890Z,4.00
2019-05-05T09:08:40.161Z,4.60
2019-05-05T09:11:13.824Z,4.10
2019-05-05T09:13:44.774Z,5.00
2019-05-05T09:16:16.240Z,4.77
2019-05-05T09:19:15.565Z,6.10
2019-05-05T09:21:46.869Z,5.57
2019-05-05T09:24:34.077Z,7.40
2019-05-05T09:27:19.756Z,6.80
2019-05-05T09:29:51.083Z,4.30
2019-05-05T09:32:24.288Z,5.37
2019-05-05T09:34:55.515Z,5.07
2019-05-05T09:37:27.753Z,4.47
2019-05-05T09:39:59.222Z,4.97
2019-05-05T09:42:30.467Z,4.03
2019-05-05T09:45:01.681Z,4.33
2019-05-05T09:47:34.367Z,4.40
2019-05-05T09:50:06.405Z,3.90
2019-05-05T09:52:37.716Z,5.17
2019-05-05T09:55:09.330Z,3.93
2019-05-05T09:57:40.572Z,4.57
2019-05-05T10:00:14.228Z,3.60
2019-05-05T10:02:45.510Z,5.10
2019-05-05T10:05:17.290Z,4.90
2019-05-05T10:07:48.521Z,4.30
2019-05-05T10:10:24.327Z,5.50
2019-05-05T10:12:55.739Z,4.17
2019-05-05T10:15:27.018Z,4.80
2019-05-05T10:17:58.229Z,4.50
2019-05-05T10:20:29.522Z,5.70
2019-05-05T10:23:00.759Z,5.43
2019-05-05T10:25:35.877Z,5.33
2019-05-05T10:28:07.005Z,5.00
2019-05-05T10:30:38.259Z,6.03
2019-05-05T10:33:09.400Z,4.67
2019-05-05T10:35:40.669Z,5.67
2019-05-05T10:38:14.095Z,4.30
2019-05-05T10:40:48.167Z,5.90
2019-05-05T10:43:17.876Z,4.50
2019-05-05T10:45:49.132Z,5.10
2019-05-05T10:48:20.305Z,5.03
2019-05-05T10:50:53.611Z,4.80
2019-05-05T10:53:24.559Z,7.07
2019-05-05T10:55:55.841Z,4.23
2019-05-05T10:58:27.128Z,6.27
2019-05-05T11:01:04.276Z,6.13
2019-05-05T11:03:35.778Z,6.23
2019-05-05T11:06:07.267Z,6.07
2019-05-05T11:08:38.622Z,5.37
2019-05-05T11:11:09.881Z,5.37
2019-05-05T11:13:44.984Z,5.40
2019-05-05T11:16:14.563Z,5.77
2019-05-05T11:18:46.016Z,5.63
2019-05-05T11:21:17.482Z,4.73
2019-05-05T11:23:48.717Z,4.20
2019-05-05T11:26:20.009Z,4.57
2019-05-05T11:28:51.331Z,4.00
2019-05-05T11:31:24.051Z,4.00
2019-05-05T11:34:10.462Z,4.23
2019-05-05T11:36:54.574Z,4.97
2019-05-05T11:39:25.859Z,4.90
2019-05-05T11:45:18.303Z,4.27
2019-05-05T11:47:49.634Z,3.53
2019-05-05T11:50:20.968Z,3.70
2019-05-05T11:52:54.003Z,3.80
2019-05-05T11:55:25.184Z,2.50
2019-05-05T11:57:57.714Z,3.37
2019-05-05T12:00:30.981Z,3.10
2019-05-05T12:03:03.850Z,3.70
2019-05-05T12:05:35.278Z,3.23
2019-05-05T12:08:09.590Z,3.73
2019-05-05T12:10:48.851Z,5.00
2019-05-05T12:13:20.108Z,3.87
2019-05-05T12:15:57.854Z,3.63
2019-05-05T12:18:29.433Z,4.20
2019-05-05T12:21:00.996Z,4.13
2019-05-05T12:23:33.925Z,3.73
2019-05-05T12:26:30.071Z,3.90
2019-05-05T12:29:25.918Z,4.07
2019-05-05T12:31:57.228Z,3.53
2019-05-05T12:34:28.521Z,4.27
2019-05-05T12:36:59.739Z,3.50
2019-05-05T12:39:30.998Z,3.17
2019-05-05T12:42:04.600Z,3.77
2019-05-05T12:44:40.342Z,3.17
2019-05-05T12:47:37.624Z,2.83
2019-05-05T12:50:09.071Z,4.73
2019-05-05T12:52:40.313Z,2.90
2019-05-05T12:55:14.128Z,3.70
2019-05-05T12:57:44.820Z,3.87
2019-05-05T13:00:18.900Z,3.03
2019-05-05T13:02:50.144Z,3.93
2019-05-05T13:05:23.591Z,3.67
2019-05-05T13:07:54.302Z,3.30
2019-05-05T13:10:25.834Z,4.23
2019-05-05T13:12:57.048Z,4.00
2019-05-05T13:15:28.321Z,3.80
2019-05-05T13:17:59.575Z,3.87
2019-05-05T13:20:49.619Z,3.27
2019-05-05T13:23:49.526Z,2.40
2019-05-05T13:26:27.456Z,2.90
2019-05-05T13:28:58.703Z,4.90
2019-05-05T13:31:29.960Z,3.00
2019-05-05T13:34:01.217Z,3.47
2019-05-05T13:36:33.439Z,4.17
2019-05-05T13:39:07.455Z,4.63
2019-05-05T13:41:38.684Z,5.13
2019-05-05T13:44:15.574Z,3.90
2019-05-05T13:46:46.779Z,3.70
2019-05-05T13:49:30.237Z,4.60
2019-05-05T13:52:04.687Z,3.93
2019-05-05T13:54:36.157Z,4.20
2019-05-05T13:57:07.502Z,3.30
2019-05-05T13:59:38.755Z,3.83
2019-05-05T14:02:10.000Z,3.70
2019-05-05T14:04:41.250Z,3.63
2019-05-05T14:07:12.500Z,3.47
2019-05-05T14:09:44.191Z,3.70
2019-05-05T14:12:15.717Z,3.43
2019-05-05T14:14:46.990Z,3.67
2019-05-05T14:17:18.289Z,2.80
2019-05-05T14:20:01.614Z,3.57
2019-05-05T14:22:24.273Z,2.93
2019-05-05T14:25:04.507Z,4.10
2019-05-05T14:27:35.794Z,3.30
2019-05-05T14:30:23.636Z,2.90
2019-05-05T14:32:55.049Z,3.30
2019-05-05T14:35:38.779Z,3.57
2019-05-05T14:38:23.530Z,3.30
2019-05-05T14:40:55.030Z,2.50
2019-05-05T14:43:26.304Z,3.43
2019-05-05T14:45:57.623Z,2.80
2019-05-05T14:48:28.926Z,2.40
2019-05-05T14:51:00.203Z,3.80
2019-05-05T14:53:31.521Z,3.43
2019-05-05T14:56:04.625Z,3.43
2019-05-05T14:58:35.692Z,3.13
2019-05-05T15:01:06.879Z,3.47
2019-05-05T15:03:38.136Z,3.30
2019-05-05T15:06:17.632Z,3.30
2019-05-05T15:09:03.927Z,3.43
2019-05-05T15:11:53.856Z,3.00
2019-05-05T15:14:25.214Z,5.47
2019-05-05T15:16:56.467Z,3.00
2019-05-05T15:19:27.649Z,3.07
2019-05-05T15:21:58.884Z,3.27
2019-05-05T15:24:30.120Z,3.03
2019-05-05T15:27:01.407Z,2.80
2019-05-05T15:29:34.426Z,3.70
2019-05-05T15:32:05.529Z,3.77
2019-05-05T15:34:36.704Z,4.33
2019-05-05T15:37:08.045Z,4.23
2019-05-05T15:39:39.280Z,3.93
2019-05-05T15:42:10.564Z,4.10
2019-05-05T15:44:43.764Z,3.90
2019-05-05T15:47:14.610Z,8.57
2019-05-05T15:49:45.840Z,3.87
2019-05-05T15:52:20.015Z,4.33
2019-05-05T15:54:49.979Z,3.60
2019-05-05T15:57:21.253Z,3.20
2019-05-05T15:59:54.149Z,4.00
2019-05-05T16:02:25.271Z,3.83
2019-05-05T16:05:02.074Z,2.83
2019-05-05T16:07:33.421Z,3.63
2019-05-05T16:10:04.864Z,3.20
2019-05-05T16:12:40.085Z,3.60
2019-05-05T16:15:31.438Z,3.63
2019-05-05T16:18:14.416Z,3.47
2019-05-05T16:20:50.071Z,3.20
2019-05-05T16:23:27.306Z,4.07
2019-05-05T16:25:58.617Z,3.90
2019-05-05T16:28:29.837Z,3.80
2019-05-05T16:31:01.125Z,3.43
2019-05-05T16:33:33.505Z,4.30
2019-05-05T16:36:06.293Z,3.80
2019-05-05T16:38:37.809Z,2.83
2019-05-05T16:41:09.100Z,4.13
2019-05-05T16:43:40.371Z,3.90
2019-05-05T16:46:11.633Z,3.20
2019-05-05T16:48:43.915Z,2.83
2019-05-05T16:51:17.369Z,3.63
2019-05-05T16:53:48.595Z,3.20
2019-05-05T16:56:19.712Z,3.60
2019-05-05T16:58:51.001Z,5.23
2019-05-05T17:01:22.192Z,4.90
2019-05-05T17:03:54.241Z,4.47
2019-05-05T17:06:25.562Z,4.37
2019-05-05T17:08:56.822Z,5.43
2019-05-05T17:11:28.092Z,3.90
2019-05-05T17:14:18.036Z,3.50
2019-05-05T17:17:01.417Z,4.50
2019-05-05T17:19:51.339Z,5.37
2019-05-05T17:22:28.484Z,3.80
2019-05-05T17:25:01.611Z,4.03
2019-05-05T17:27:47.048Z,4.10
2019-05-05T17:30:06.070Z,3.30
2019-05-05T17:32:37.310Z,3.43
2019-05-05T17:35:08.716Z,4.40
2019-05-05T17:37:39.920Z,4.40
2019-05-05T17:40:33.676Z,3.20
2019-05-05T17:43:29.533Z,3.70
2019-05-05T17:46:10.531Z,3.50
2019-05-05T17:49:00.497Z,3.50
2019-05-05T17:51:56.593Z,3.70
2019-05-05T17:54:33.747Z,3.43
2019-05-05T17:57:04.485Z,2.87
2019-05-05T17:59:35.742Z,3.40
2019-05-05T18:02:07.143Z,4.03
2019-05-05T18:04:38.828Z,3.93
2019-05-05T18:07:27.452Z,3.27
2019-05-05T18:10:21.054Z,2.93
2019-05-05T18:13:10.301Z,3.17
2019-05-05T18:15:54.421Z,3.40
2019-05-05T18:18:25.803Z,3.13
2019-05-05T18:20:57.026Z,3.70
2019-05-05T18:23:28.219Z,3.77
2019-05-05T18:25:59.579Z,3.10
2019-05-05T18:28:30.869Z,3.50
2019-05-05T18:31:02.125Z,3.17
2019-05-05T18:33:33.970Z,3.43
2019-05-05T18:36:05.208Z,4.30
2019-05-05T18:38:36.363Z,3.33
2019-05-05T18:41:16.181Z,4.17
2019-05-05T18:43:52.725Z,4.30
2019-05-05T18:46:24.437Z,3.67
2019-05-05T18:48:55.775Z,4.47
2019-05-05T18:51:27.063Z,4.43
2019-05-05T18:53:58.211Z,4.70
2019-05-05T18:56:29.481Z,4.40
2019-05-05T18:59:00.786Z,4.33
2019-05-05T19:01:48.716Z,4.43
2019-05-05T19:04:35.837Z,3.93
2019-05-05T19:07:28.720Z,3.17
2019-05-05T19:09:59.998Z,4.37
2019-05-05T19:12:31.325Z,4.10
2019-05-05T19:15:04.311Z,3.67
2019-05-05T19:17:35.481Z,4.10
2019-05-05T19:20:14.655Z,3.63
2019-05-05T19:22:46.328Z,3.50
2019-05-05T19:25:17.607Z,4.10
2019-05-05T19:27:49.001Z,3.47
2019-05-05T19:30:20.370Z,3.97
2019-05-05T19:32:51.542Z,3.10
2019-05-05T19:35:23.527Z,3.67
2019-05-05T19:37:55.530Z,4.80
2019-05-05T19:40:26.748Z,3.80
2019-05-05T19:42:58.010Z,4.70
2019-05-05T19:45:29.252Z,4.63
2019-05-05T19:48:00.510Z,4.57
2019-05-05T19:50:44.557Z,4.40
2019-05-05T19:53:26.067Z,4.77
2019-05-05T19:55:58.308Z,4.80
2019-05-05T19:58:29.552Z,3.90
2019-05-05T20:01:04.929Z,4.93
2019-05-05T20:03:36.421Z,3.97
2019-05-05T20:06:07.903Z,5.90
2019-05-05T20:08:41.330Z,4.57
2019-05-05T20:11:14.179Z,4.60
2019-05-05T20:13:45.007Z,5.57
2019-05-05T20:16:44.214Z,4.63
2019-05-05T20:19:15.485Z,4.40
2019-05-05T20:21:46.699Z,5.17
2019-05-05T20:24:17.987Z,5.17
2019-05-05T20:26:49.224Z,4.50
2019-05-05T20:29:20.421Z,5.37
2019-05-05T20:31:51.643Z,4.40
2019-05-05T20:34:50.684Z,4.53
2019-05-05T20:37:24.898Z,5.10
2019-05-05T20:39:56.887Z,5.07
2019-05-05T20:42:28.119Z,5.17
2019-05-05T20:44:59.317Z,4.23
2019-05-05T20:47:30.562Z,5.20
2019-05-05T20:50:01.789Z,5.47
2019-05-05T20:52:34.567Z,4.77
2019-05-05T20:55:06.473Z,4.93
2019-05-05T20:57:37.714Z,4.87
2019-05-05T21:00:11.355Z,4.90
2019-05-05T21:02:43.593Z,4.10
2019-05-05T21:05:14.997Z,4.23
2019-05-05T21:07:46.290Z,4.10
2019-05-05T21:10:17.927Z,4.67
2019-05-05T21:12:49.219Z,4.33
2019-05-05T21:15:20.318Z,4.50
2019-05-05T21:17:53.931Z,4.57
2019-05-05T21:20:24.449Z,5.60
2019-05-05T21:23:04.191Z,4.60
2019-05-05T21:25:37.613Z,5.13
2019-05-05T21:28:08.838Z,4.57
2019-05-05T21:30:41.646Z,5.40
2019-05-05T21:33:13.042Z,5.77
2019-05-05T21:35:44.261Z,5.40
2019-05-05T21:38:15.435Z,4.33
2019-05-05T21:40:46.639Z,5.37
2019-05-05T21:43:17.929Z,4.80
2019-05-05T21:45:49.180Z,6.03
2019-05-05T21:48:20.408Z,6.90
2019-05-05T21:50:57.730Z,6.10
2019-05-05T21:53:46.710Z,8.20
2019-05-05T21:56:46.458Z,11.00
2019-05-05T21:59:17.669Z,12.50
2019-05-05T22:01:49.974Z,11.90
2019-05-05T22:04:21.376Z,11.50
2019-05-05T22:06:54.078Z,8.80
2019-05-05T22:09:25.329Z,9.30
2019-05-05T22:11:56.703Z,11.13
2019-05-05T22:14:27.914Z,8.60
2019-05-05T22:16:59.166Z,10.07
2019-05-05T22:19:32.702Z,9.70
2019-05-05T22:22:07.392Z,9.67
2019-05-05T22:24:38.532Z,8.50
2019-05-05T22:27:09.759Z,8.07
2019-05-05T22:29:40.892Z,7.50
2019-05-05T22:32:14.016Z,7.87
2019-05-05T22:34:45.075Z,9.53
2019-05-05T22:37:16.287Z,6.93
2019-05-05T22:39:47.486Z,8.13
2019-05-05T22:42:18.654Z,9.07
2019-05-05T22:44:49.860Z,7.63
2019-05-05T22:47:21.126Z,7.53
2019-05-05T22:49:53.922Z,9.00
2019-05-05T22:52:25.575Z,9.00
2019-05-05T22:54:56.987Z,7.37
2019-05-05T22:57:28.248Z,6.53
2019-05-05T22:59:59.486Z,7.00
2019-05-05T23:02:33.923Z,6.37
2019-05-05T23:05:28.007Z,6.60
2019-05-05T23:07:59.190Z,6.10
2019-05-05T23:10:30.421Z,6.43
2019-05-05T23:13:01.593Z,6.07
2019-05-05T23:15:34.395Z,6.50
2019-05-05T23:18:12.329Z,6.20
2019-05-05T23:21:02.436Z,6.20
2019-05-05T23:23:46.272Z,6.00
2019-05-05T23:26:19.280Z,5.93
2019-05-05T23:28:50.509Z,7.23
2019-05-05T23:31:23.976Z,7.03
2019-05-05T23:33:54.938Z,6.23
2019-05-05T23:36:26.166Z,6.27
2019-05-05T23:38:57.377Z,5.73
2019-05-05T23:41:28.608Z,6.53
2019-05-05T23:44:01.137Z,7.30
2019-05-05T23:46:32.200Z,6.73
2019-05-05T23:49:04.273Z,6.00
2019-05-05T23:51:35.847Z,6.83
2019-05-05T23:54:07.393Z,6.80
2019-05-05T23:56:38.558Z,6.07
2019-05-05T23:59:09.773Z,6.10
